Decoded Metar for PAFA (FAIRBANKS in AK, USA) (IATA:FAI) | Meteo·Mobile Aviation Weather
aviador You're here:

PAFA Decoded Metar

FAIRBANKS in AK, USA
Report Time2019-01-21 14:53:00
UTC Time2019-01-21 15:28:09
Flight Rules vfr VFR
Wind060° at 05 kt
W.Decomp.*RWY 02: 4.7 kt HW 1.6 kt RCW
W.Rank060° ranks 8
Current wind is below 060° avg. (5.1)
Visibility9999 m
Phenomena:N/A
Clouds:Scattered 030 Hf
Expected CloudBase > 1,600 ft AGL from Temp-Dew spread
CeilingNone
Temp-28°C (ISA -42)
Dew Point-32°C (69% RH)
AAT-33.7°C
QNH1011 hPa
Density Alt-4,987 ft
Elevation433 ft
Report Wrong Elevation
Raw Report
PAFA 211453Z 06005KT 10SM SCT030 M28/M32 A2985=

Extra information for PAFA:More info

Metar Taf Metar & Taf Last 4 Metars F.Rules Stats Wind Profile Meteogram Temp Stats Airport Information Weather charts Add Link Nearby VenuesMetar ALERT Operation Metar Decoded Social comments

AIRNAV info for PAFA